Time;durP1;ratioP1;P1;durP2;ratioP2;P2;SDS_P1;SDS_P2;PMS_P1;PMS_P2;Temp;Humidity;BMP_temperature;BMP_pressure;BME280_temperature;BME280_humidity;BME280_pressure;Samples;Min_cycle;Max_cycle;Signal;HPM_P1;HPM_P2
2023/05/05 00:00:52;;;;;;;6.40;4.28;;;;;;;;;;5055837;28;20344;-59
2023/05/05 00:03:19;;;;;;;4.97;4.20;;;;;;;;;;5055830;28;20051;-59
2023/05/05 00:05:45;;;;;;;4.75;4.10;;;;;;;;;;5055199;28;20056;-59
2023/05/05 00:08:11;;;;;;;5.32;4.78;;;;;;;;;;5055668;28;20021;-59
2023/05/05 00:10:37;;;;;;;5.15;4.10;;;;;;;;;;5055731;28;20028;-59
2023/05/05 00:13:03;;;;;;;4.70;4.15;;;;;;;;;;5055295;28;20033;-59
2023/05/05 00:15:29;;;;;;;8.38;4.10;;;;;;;;;;5055360;28;20071;-58
2023/05/05 00:17:55;;;;;;;5.82;4.53;;;;;;;;;;5055504;28;20033;-59
2023/05/05 00:20:21;;;;;;;6.13;4.38;;;;;;;;;;5055729;28;20027;-59
2023/05/05 00:22:47;;;;;;;4.63;3.88;;;;;;;;;;5055733;28;20025;-59
2023/05/05 00:25:13;;;;;;;6.70;3.80;;;;;;;;;;5055123;28;20029;-59
2023/05/05 00:27:39;;;;;;;4.72;3.72;;;;;;;;;;5055197;28;20063;-59
2023/05/05 00:30:06;;;;;;;4.90;3.72;;;;;;;;;;5054440;28;20047;-59
2023/05/05 00:32:32;;;;;;;5.10;4.40;;;;;;;;;;5054696;28;20029;-59
2023/05/05 00:34:58;;;;;;;5.00;4.40;;;;;;;;;;5055517;28;20078;-59
2023/05/05 00:37:24;;;;;;;7.15;4.40;;;;;;;;;;5055000;28;20024;-59
2023/05/05 00:39:49;;;;;;;6.75;5.10;;;;;;;;;;5055409;28;20025;-59
2023/05/05 00:42:15;;;;;;;5.05;3.95;;;;;;;;;;5054445;28;20037;-59
2023/05/05 00:44:42;;;;;;;5.70;4.70;;;;;;;;;;5054466;28;20150;-59
2023/05/05 00:47:08;;;;;;;4.85;3.92;;;;;;;;;;5054719;28;20089;-59
2023/05/05 00:49:35;;;;;;;5.22;4.25;;;;;;;;;;5054598;28;20029;-57
2023/05/05 00:52:01;;;;;;;4.88;3.92;;;;;;;;;;5054278;28;20033;-57
2023/05/05 00:54:27;;;;;;;7.43;5.05;;;;;;;;;;5054620;28;20024;-57
2023/05/05 00:56:53;;;;;;;5.30;4.63;;;;;;;;;;5054681;28;20017;-57
2023/05/05 00:59:19;;;;;;;5.05;4.22;;;;;;;;;;5054237;28;20349;-57
2023/05/05 01:01:45;;;;;;;4.72;3.83;;;;;;;;;;5054130;28;20021;-57
2023/05/05 01:04:11;;;;;;;4.55;3.97;;;;;;;;;;5054473;28;20032;-57
2023/05/05 01:06:56;;;;;;;4.20;3.55;;;;;;;;;;5054163;28;20033;-58
2023/05/05 01:09:35;;;;;;;4.03;3.63;;;;;;;;;;5054561;28;20082;-58
2023/05/05 01:12:24;;;;;;;5.53;4.00;;;;;;;;;;5054289;28;20029;-57
2023/05/05 01:15:06;;;;;;;5.35;3.80;;;;;;;;;;5053810;28;20117;-58
2023/05/05 01:17:36;;;;;;;4.20;3.78;;;;;;;;;;5053848;28;20040;-57
2023/05/05 01:20:20;;;;;;;4.22;3.72;;;;;;;;;;5054246;28;20463;-58
2023/05/05 01:22:46;;;;;;;5.05;3.70;;;;;;;;;;5053769;28;20037;-58
2023/05/05 01:25:32;;;;;;;4.70;3.55;;;;;;;;;;5053566;28;20028;-57
2023/05/05 01:28:18;;;;;;;4.35;3.88;;;;;;;;;;5054084;28;20040;-58
2023/05/05 01:31:03;;;;;;;4.47;3.65;;;;;;;;;;5049864;28;20053;-58
2023/05/05 01:33:34;;;;;;;5.00;3.80;;;;;;;;;;5053975;28;20378;-58
2023/05/05 01:36:07;;;;;;;6.30;4.38;;;;;;;;;;5053668;28;20052;-58
2023/05/05 01:38:39;;;;;;;5.45;3.83;;;;;;;;;;5054027;28;20025;-58
2023/05/05 01:41:13;;;;;;;5.55;4.00;;;;;;;;;;5053668;28;20029;-58
2023/05/05 01:43:39;;;;;;;5.07;4.57;;;;;;;;;;5054119;28;20017;-58
2023/05/05 01:46:07;;;;;;;4.40;4.00;;;;;;;;;;5054456;28;20047;-57
2023/05/05 01:48:33;;;;;;;4.72;4.22;;;;;;;;;;5053545;28;20374;-58
2023/05/05 01:51:01;;;;;;;5.13;4.63;;;;;;;;;;5053857;28;20036;-58
2023/05/05 01:53:28;;;;;;;5.88;4.32;;;;;;;;;;5053852;28;20522;-58
2023/05/05 01:55:55;;;;;;;4.18;3.20;;;;;;;;;;5058330;28;20029;-57
2023/05/05 01:58:21;;;;;;;4.65;3.63;;;;;;;;;;5057663;28;20540;-58
2023/05/05 02:00:48;;;;;;;5.13;4.05;;;;;;;;;;5057627;28;20103;-58
2023/05/05 02:03:15;;;;;;;5.20;3.88;;;;;;;;;;5057510;28;20439;-58
2023/05/05 02:05:43;;;;;;;4.70;4.18;;;;;;;;;;5057547;28;20067;-58
2023/05/05 02:08:09;;;;;;;4.78;4.07;;;;;;;;;;5057492;28;20021;-58
2023/05/05 02:10:35;;;;;;;6.70;4.53;;;;;;;;;;5057753;28;20065;-58
2023/05/05 02:13:02;;;;;;;4.38;3.85;;;;;;;;;;5058056;28;20033;-58
2023/05/05 02:15:29;;;;;;;5.38;4.10;;;;;;;;;;5057446;28;20053;-58
2023/05/05 02:17:55;;;;;;;6.43;3.83;;;;;;;;;;5057784;28;20025;-58
2023/05/05 02:20:22;;;;;;;4.25;3.72;;;;;;;;;;5057306;28;20103;-58
2023/05/05 02:22:48;;;;;;;5.00;4.20;;;;;;;;;;5057541;28;20029;-58
2023/05/05 02:25:16;;;;;;;4.88;4.25;;;;;;;;;;5057215;28;20032;-57
2023/05/05 02:27:43;;;;;;;5.10;4.43;;;;;;;;;;5057419;28;20025;-57
2023/05/05 02:30:10;;;;;;;4.68;3.85;;;;;;;;;;5057005;28;20025;-58
2023/05/05 02:32:41;;;;;;;6.13;4.30;;;;;;;;;;5056931;28;20040;-58
2023/05/05 02:35:07;;;;;;;;;;;;;;;;;;5057461;28;20029;-57
2023/05/05 02:37:33;;;;;;;4.18;3.78;;;;;;;;;;5057781;28;20239;-57
2023/05/05 02:40:04;;;;;;;4.93;4.07;;;;;;;;;;5057161;28;20025;-58
2023/05/05 02:42:33;;;;;;;5.88;4.05;;;;;;;;;;5057143;28;20025;-57
2023/05/05 02:45:01;;;;;;;5.05;4.25;;;;;;;;;;5056743;28;20111;-58
2023/05/05 02:47:36;;;;;;;7.80;4.38;;;;;;;;;;5056804;28;20031;-57
2023/05/05 02:50:03;;;;;;;5.95;5.35;;;;;;;;;;5056645;28;20028;-57
2023/05/05 02:52:29;;;;;;;5.60;4.53;;;;;;;;;;5057044;28;20102;-57
2023/05/05 02:54:55;;;;;;;4.93;4.07;;;;;;;;;;5057085;28;20027;-57
2023/05/05 02:57:25;;;;;;;4.78;4.25;;;;;;;;;;5056661;28;20021;-57
2023/05/05 03:00:00;;;;;;;5.27;4.20;;;;;;;;;;5056781;28;20029;-57
2023/05/05 03:02:27;;;;;;;4.85;4.10;;;;;;;;;;5056798;28;20033;-57
2023/05/05 03:05:23;;;;;;;5.43;4.07;;;;;;;;;;5056896;28;20059;-58
2023/05/05 03:07:54;;;;;;;3.78;3.33;;;;;;;;;;5051334;28;20497;-57
2023/05/05 03:10:21;;;;;;;5.47;3.78;;;;;;;;;;5056905;28;20414;-58
2023/05/05 03:12:53;;;;;;;4.13;3.72;;;;;;;;;;5055932;28;20094;-57
2023/05/05 03:15:21;;;;;;;4.60;3.70;;;;;;;;;;5056343;28;20049;-57
2023/05/05 03:17:48;;;;;;;4.40;3.72;;;;;;;;;;5056278;28;20107;-57
2023/05/05 03:20:14;;;;;;;3.40;2.72;;;;;;;;;;5056652;28;20355;-58
2023/05/05 03:22:40;;;;;;;4.55;3.40;;;;;;;;;;5056094;28;20036;-57
2023/05/05 03:25:07;;;;;;;3.55;2.78;;;;;;;;;;5056278;28;20025;-57
2023/05/05 03:27:32;;;;;;;3.70;2.78;;;;;;;;;;5056044;28;20107;-57
2023/05/05 03:29:58;;;;;;;3.72;3.08;;;;;;;;;;5055941;28;20060;-57
2023/05/05 03:32:25;;;;;;;4.43;3.33;;;;;;;;;;5056200;28;20079;-57
2023/05/05 03:34:51;;;;;;;3.00;2.10;;;;;;;;;;5055976;28;20025;-57
2023/05/05 03:37:17;;;;;;;6.07;3.13;;;;;;;;;;5056133;28;20086;-58
2023/05/05 03:39:43;;;;;;;8.27;2.78;;;;;;;;;;5055917;28;20025;-58
2023/05/05 03:42:09;;;;;;;4.30;2.70;;;;;;;;;;5056141;28;20029;-57
2023/05/05 03:44:35;;;;;;;3.83;2.95;;;;;;;;;;5056108;28;20532;-57
2023/05/05 03:47:01;;;;;;;2.78;2.25;;;;;;;;;;5056605;28;20108;-58
2023/05/05 03:49:28;;;;;;;3.38;2.30;;;;;;;;;;5055500;28;20051;-58
2023/05/05 03:51:54;;;;;;;3.50;2.80;;;;;;;;;;5056105;28;20025;-58
2023/05/05 03:54:20;;;;;;;4.13;2.20;;;;;;;;;;5056379;28;20043;-58
2023/05/05 03:56:46;;;;;;;3.63;2.65;;;;;;;;;;5055926;28;20032;-58
2023/05/05 03:59:12;;;;;;;3.45;2.50;;;;;;;;;;5055687;28;20025;-58
2023/05/05 04:01:38;;;;;;;3.35;2.45;;;;;;;;;;5055937;28;20033;-58
2023/05/05 04:04:04;;;;;;;3.45;2.08;;;;;;;;;;5055346;28;20392;-58
2023/05/05 04:06:30;;;;;;;4.32;2.55;;;;;;;;;;5056191;28;20021;-58
2023/05/05 04:08:56;;;;;;;3.90;2.78;;;;;;;;;;5055454;28;20159;-57
2023/05/05 04:11:22;;;;;;;2.92;2.22;;;;;;;;;;5055181;28;20112;-57
2023/05/05 04:13:48;;;;;;;3.65;2.72;;;;;;;;;;5055444;28;20021;-57
2023/05/05 04:16:15;;;;;;;5.18;2.50;;;;;;;;;;5055531;28;20048;-58
2023/05/05 04:18:41;;;;;;;2.92;2.28;;;;;;;;;;5054585;28;20021;-58
2023/05/05 04:21:07;;;;;;;5.35;2.42;;;;;;;;;;5055285;28;20112;-58
2023/05/05 04:23:33;;;;;;;6.13;3.25;;;;;;;;;;5055039;28;20025;-58
2023/05/05 04:25:59;;;;;;;5.13;2.13;;;;;;;;;;5055344;28;20112;-58
2023/05/05 04:28:25;;;;;;;3.13;2.20;;;;;;;;;;5054968;28;20491;-58
2023/05/05 04:30:51;;;;;;;5.93;2.75;;;;;;;;;;5055176;28;20025;-58
2023/05/05 04:33:17;;;;;;;4.13;3.00;;;;;;;;;;5055266;28;20036;-58
2023/05/05 04:35:43;;;;;;;3.53;2.72;;;;;;;;;;5054971;28;20573;-58
2023/05/05 04:38:09;;;;;;;2.90;2.38;;;;;;;;;;5055505;28;20073;-58
2023/05/05 04:40:38;;;;;;;3.85;3.00;;;;;;;;;;5055237;28;20498;-58
2023/05/05 04:43:05;;;;;;;4.03;3.13;;;;;;;;;;5054551;28;20102;-58
2023/05/05 04:45:31;;;;;;;3.33;2.75;;;;;;;;;;5055435;28;20263;-58
2023/05/05 04:47:57;;;;;;;3.83;2.78;;;;;;;;;;5054420;28;20059;-58
2023/05/05 04:50:23;;;;;;;3.63;3.17;;;;;;;;;;5054462;28;20038;-58
2023/05/05 04:52:49;;;;;;;4.00;3.45;;;;;;;;;;5054271;28;20056;-58
2023/05/05 04:55:15;;;;;;;4.40;3.30;;;;;;;;;;5055168;28;20494;-58
2023/05/05 04:57:41;;;;;;;3.92;3.55;;;;;;;;;;5055027;28;20025;-58
2023/05/05 05:00:08;;;;;;;5.60;4.38;;;;;;;;;;5054047;28;20027;-58
2023/05/05 05:02:34;;;;;;;4.43;3.53;;;;;;;;;;5054191;28;20024;-58
2023/05/05 05:05:00;;;;;;;8.05;3.70;;;;;;;;;;5054161;28;20056;-58
2023/05/05 05:07:26;;;;;;;3.95;3.40;;;;;;;;;;5055051;28;20024;-58
2023/05/05 05:09:52;;;;;;;4.82;3.67;;;;;;;;;;5054107;28;20037;-58
2023/05/05 05:12:18;;;;;;;4.10;3.60;;;;;;;;;;5054565;28;20068;-58
2023/05/05 05:14:44;;;;;;;3.95;3.20;;;;;;;;;;5054102;28;20045;-58
2023/05/05 05:17:10;;;;;;;4.57;3.63;;;;;;;;;;5054054;28;20451;-58
2023/05/05 05:19:36;;;;;;;4.10;3.70;;;;;;;;;;5053913;28;20025;-58
2023/05/05 05:22:02;;;;;;;4.20;3.33;;;;;;;;;;5053998;28;20108;-57
2023/05/05 05:24:28;;;;;;;5.05;3.22;;;;;;;;;;5054669;28;20021;-58
2023/05/05 05:26:54;;;;;;;5.32;4.10;;;;;;;;;;5053850;28;20513;-58
2023/05/05 05:29:20;;;;;;;4.75;3.70;;;;;;;;;;5053531;28;20324;-58
2023/05/05 05:31:46;;;;;;;4.57;3.58;;;;;;;;;;5054259;28;20466;-58
2023/05/05 05:34:12;;;;;;;4.85;4.32;;;;;;;;;;5053707;28;20082;-58
2023/05/05 05:36:38;;;;;;;5.65;4.47;;;;;;;;;;5054301;28;20064;-57
2023/05/05 05:39:04;;;;;;;5.03;4.45;;;;;;;;;;5053952;28;20470;-58
2023/05/05 05:41:30;;;;;;;6.68;4.10;;;;;;;;;;5053361;28;20425;-58
2023/05/05 05:43:56;;;;;;;4.78;3.67;;;;;;;;;;5053594;28;20017;-58
2023/05/05 05:46:22;;;;;;;5.78;4.20;;;;;;;;;;5054091;28;20033;-58
2023/05/05 05:48:48;;;;;;;5.57;4.32;;;;;;;;;;5054130;28;20021;-58
2023/05/05 05:51:14;;;;;;;5.03;4.53;;;;;;;;;;5053484;28;20071;-58
2023/05/05 05:53:40;;;;;;;5.75;4.95;;;;;;;;;;5053585;28;20429;-58
2023/05/05 05:56:06;;;;;;;4.72;4.22;;;;;;;;;;5054467;28;20017;-58
2023/05/05 05:58:32;;;;;;;6.30;3.95;;;;;;;;;;5053543;28;20025;-58
2023/05/05 06:00:59;;;;;;;4.40;3.80;;;;;;;;;;5053483;28;20032;-58
2023/05/05 06:03:25;;;;;;;4.95;3.75;;;;;;;;;;5053149;28;20459;-58
2023/05/05 06:05:51;;;;;;;5.85;3.20;;;;;;;;;;5053969;28;20025;-58
2023/05/05 06:08:17;;;;;;;3.75;3.08;;;;;;;;;;5053705;28;20029;-58
2023/05/05 06:10:43;;;;;;;5.10;2.38;;;;;;;;;;5053519;28;20021;-58
2023/05/05 06:13:09;;;;;;;3.42;2.72;;;;;;;;;;5053282;28;20123;-58
2023/05/05 06:15:35;;;;;;;4.68;2.90;;;;;;;;;;5053691;28;20059;-58
2023/05/05 06:18:01;;;;;;;5.25;2.55;;;;;;;;;;5053378;28;20079;-58
2023/05/05 06:20:27;;;;;;;4.75;2.70;;;;;;;;;;5053119;28;20039;-58
2023/05/05 06:22:52;;;;;;;3.65;3.00;;;;;;;;;;5053382;28;20079;-58
2023/05/05 06:25:18;;;;;;;2.90;2.50;;;;;;;;;;5053678;28;20021;-58
2023/05/05 06:27:45;;;;;;;3.15;2.15;;;;;;;;;;5053210;28;20048;-58
2023/05/05 06:30:11;;;;;;;3.45;2.80;;;;;;;;;;5052917;28;20486;-58
2023/05/05 06:32:37;;;;;;;7.35;2.63;;;;;;;;;;5053136;28;20079;-58
2023/05/05 06:35:03;;;;;;;4.93;3.25;;;;;;;;;;5053166;28;20099;-58
2023/05/05 06:37:29;;;;;;;4.97;3.70;;;;;;;;;;5053259;28;20032;-58
2023/05/05 06:39:55;;;;;;;4.97;3.70;;;;;;;;;;5053887;28;20351;-58
2023/05/05 06:42:21;;;;;;;5.93;3.80;;;;;;;;;;5056740;28;20080;-58
2023/05/05 06:44:47;;;;;;;6.85;4.47;;;;;;;;;;5056706;28;20471;-58
2023/05/05 06:47:13;;;;;;;4.35;3.72;;;;;;;;;;5056640;28;20108;-58
2023/05/05 06:49:39;;;;;;;5.07;3.75;;;;;;;;;;5056656;28;20089;-58
2023/05/05 06:52:07;;;;;;;4.18;3.25;;;;;;;;;;5056607;28;20127;-58
2023/05/05 06:54:33;;;;;;;4.72;3.70;;;;;;;;;;5056672;28;20025;-58
2023/05/05 06:56:59;;;;;;;3.90;2.65;;;;;;;;;;5057444;28;20052;-58
2023/05/05 06:59:25;;;;;;;3.65;2.20;;;;;;;;;;5056963;28;20025;-58
2023/05/05 07:01:51;;;;;;;3.10;1.98;;;;;;;;;;5056555;28;20083;-58
2023/05/05 07:04:17;;;;;;;3.13;1.75;;;;;;;;;;5056968;28;20036;-59
2023/05/05 07:06:43;;;;;;;4.40;1.73;;;;;;;;;;5056455;28;20410;-59
2023/05/05 07:09:08;;;;;;;2.78;1.63;;;;;;;;;;5056413;28;20024;-60
2023/05/05 07:11:34;;;;;;;6.22;2.30;;;;;;;;;;5056033;28;20041;-60
2023/05/05 07:14:01;;;;;;;3.90;2.70;;;;;;;;;;5056308;28;20501;-59
2023/05/05 07:16:27;;;;;;;2.90;2.03;;;;;;;;;;5056254;28;20044;-59
2023/05/05 07:18:53;;;;;;;3.45;1.92;;;;;;;;;;5056001;28;20048;-60
2023/05/05 07:21:19;;;;;;;5.80;2.10;;;;;;;;;;5056715;28;20454;-60
2023/05/05 07:23:46;;;;;;;2.40;1.55;;;;;;;;;;5056969;28;20021;-60
2023/05/05 07:26:12;;;;;;;4.25;2.25;;;;;;;;;;5056670;28;20367;-60
2023/05/05 07:28:38;;;;;;;6.78;2.17;;;;;;;;;;5056004;28;20017;-60
2023/05/05 07:31:04;;;;;;;5.63;2.30;;;;;;;;;;5055732;28;20024;-59
2023/05/05 07:33:30;;;;;;;3.13;1.95;;;;;;;;;;5056219;28;20032;-60
2023/05/05 07:35:56;;;;;;;3.85;2.38;;;;;;;;;;5056311;28;20022;-59
2023/05/05 07:38:24;;;;;;;5.10;1.50;;;;;;;;;;5055845;28;20053;-60
2023/05/05 07:40:50;;;;;;;2.25;1.45;;;;;;;;;;5056322;28;20078;-60
2023/05/05 07:43:16;;;;;;;3.15;1.60;;;;;;;;;;5055699;28;20120;-60
2023/05/05 07:45:42;;;;;;;2.15;1.40;;;;;;;;;;5055961;28;20028;-60
2023/05/05 07:48:08;;;;;;;5.82;1.67;;;;;;;;;;5055648;28;20017;-60
2023/05/05 07:50:34;;;;;;;5.22;1.45;;;;;;;;;;5054166;28;20455;-60
2023/05/05 07:53:00;;;;;;;2.85;1.75;;;;;;;;;;5054440;28;20433;-60
2023/05/05 07:55:26;;;;;;;5.35;1.77;;;;;;;;;;5056172;28;20024;-60
2023/05/05 07:57:52;;;;;;;2.58;1.50;;;;;;;;;;5055351;28;20036;-60
2023/05/05 08:00:18;;;;;;;2.10;1.42;;;;;;;;;;5054996;28;20032;-60
2023/05/05 08:02:44;;;;;;;2.83;1.65;;;;;;;;;;5055363;28;20036;-59
2023/05/05 08:05:11;;;;;;;4.35;1.40;;;;;;;;;;5055211;28;20027;-59
2023/05/05 08:07:39;;;;;;;2.22;1.20;;;;;;;;;;5055888;28;20025;-60
2023/05/05 08:10:06;;;;;;;7.30;1.60;;;;;;;;;;5055202;28;20025;-60
2023/05/05 08:12:32;;;;;;;3.10;1.75;;;;;;;;;;5054741;28;20386;-59
2023/05/05 08:14:58;;;;;;;2.65;1.92;;;;;;;;;;5055350;28;20048;-60
2023/05/05 08:17:25;;;;;;;2.50;1.33;;;;;;;;;;5055083;28;20021;-59
2023/05/05 08:19:52;;;;;;;2.25;1.67;;;;;;;;;;5055872;28;20442;-60
2023/05/05 08:22:18;;;;;;;5.15;2.25;;;;;;;;;;5055532;28;20029;-60
2023/05/05 08:24:43;;;;;;;3.67;2.47;;;;;;;;;;5054655;28;20032;-59
2023/05/05 08:27:10;;;;;;;4.30;2.20;;;;;;;;;;5054869;28;20029;-60
2023/05/05 08:29:36;;;;;;;3.78;2.13;;;;;;;;;;5055354;28;20067;-59
2023/05/05 08:32:02;;;;;;;4.35;2.42;;;;;;;;;;5054535;28;20041;-59
2023/05/05 08:34:27;;;;;;;3.28;2.17;;;;;;;;;;5054841;28;20021;-59
2023/05/05 08:36:53;;;;;;;3.75;2.03;;;;;;;;;;5054679;28;20032;-60
2023/05/05 08:39:19;;;;;;;3.58;2.30;;;;;;;;;;5055194;28;20151;-60
2023/05/05 08:41:45;;;;;;;3.40;2.00;;;;;;;;;;5054630;28;20120;-60
2023/05/05 08:44:11;;;;;;;5.03;1.92;;;;;;;;;;5054533;28;20021;-60
2023/05/05 08:46:38;;;;;;;1.98;1.60;;;;;;;;;;5055136;28;20103;-60
2023/05/05 08:49:05;;;;;;;3.60;1.98;;;;;;;;;;5054404;28;20386;-60
2023/05/05 08:51:38;;;;;;;4.35;2.80;;;;;;;;;;5054644;28;20068;-60
2023/05/05 08:54:05;;;;;;;2.75;1.52;;;;;;;;;;5054818;28;20375;-59
2023/05/05 08:56:37;;;;;;;2.72;2.00;;;;;;;;;;5055313;28;20190;-59
2023/05/05 08:59:03;;;;;;;2.88;1.73;;;;;;;;;;5054605;28;20052;-60
2023/05/05 09:01:32;;;;;;;3.78;2.00;;;;;;;;;;5053858;28;20044;-60
2023/05/05 09:03:58;;;;;;;2.25;1.80;;;;;;;;;;5053460;28;20485;-57
2023/05/05 09:06:26;;;;;;;2.80;1.73;;;;;;;;;;5054298;28;20025;-59
2023/05/05 09:08:52;;;;;;;5.28;2.63;;;;;;;;;;5053707;28;20021;-59
2023/05/05 09:11:18;;;;;;;4.35;2.38;;;;;;;;;;5053555;28;20029;-59
2023/05/05 09:13:45;;;;;;;3.33;2.15;;;;;;;;;;5052420;28;20037;-59
2023/05/05 09:16:11;;;;;;;2.78;1.85;;;;;;;;;;5053830;28;20136;-59
2023/05/05 09:18:39;;;;;;;5.63;2.47;;;;;;;;;;5053644;28;20048;-59
2023/05/05 09:21:18;;;;;;;4.90;2.30;;;;;;;;;;5053837;28;20352;-59
2023/05/05 09:24:03;;;;;;;2.95;2.17;;;;;;;;;;5053909;28;20544;-59
2023/05/05 09:26:32;;;;;;;3.35;2.13;;;;;;;;;;5054537;28;20078;-59
2023/05/05 09:28:58;;;;;;;3.35;2.55;;;;;;;;;;5054200;28;20106;-59
2023/05/05 09:31:24;;;;;;;3.50;2.80;;;;;;;;;;5054089;28;20408;-59
2023/05/05 09:33:50;;;;;;;3.10;2.00;;;;;;;;;;5053821;28;20029;-59
2023/05/05 09:36:16;;;;;;;2.67;2.03;;;;;;;;;;5053530;28;20410;-59
2023/05/05 09:39:02;;;;;;;2.38;1.77;;;;;;;;;;5053611;28;20032;-59
2023/05/05 09:41:37;;;;;;;4.85;2.30;;;;;;;;;;5053674;28;20474;-59
2023/05/05 09:44:03;;;;;;;2.33;1.55;;;;;;;;;;5053131;28;20063;-59
2023/05/05 09:46:29;;;;;;;3.85;2.25;;;;;;;;;;5053060;28;20099;-59
2023/05/05 09:48:55;;;;;;;3.20;1.85;;;;;;;;;;5052987;28;20070;-59
2023/05/05 09:51:31;;;;;;;4.38;1.80;;;;;;;;;;5053173;28;20386;-59
2023/05/05 09:53:57;;;;;;;2.85;1.75;;;;;;;;;;5053350;28;20455;-59
2023/05/05 09:56:36;;;;;;;3.33;1.55;;;;;;;;;;5053055;28;20021;-59
2023/05/05 09:59:11;;;;;;;2.75;1.50;;;;;;;;;;5053463;28;20056;-59
2023/05/05 10:01:37;;;;;;;2.28;1.65;;;;;;;;;;5052998;28;20360;-59
2023/05/05 10:04:03;;;;;;;4.82;1.60;;;;;;;;;;5054119;28;20025;-59
2023/05/05 10:06:40;;;;;;;5.82;1.77;;;;;;;;;;5053495;28;20029;-59
2023/05/05 10:09:06;;;;;;;3.63;2.00;;;;;;;;;;5053640;28;20025;-59
2023/05/05 10:11:33;;;;;;;2.95;1.40;;;;;;;;;;5053549;28;20043;-59
2023/05/05 10:13:59;;;;;;;1.65;0.80;;;;;;;;;;5052891;28;20051;-59
2023/05/05 10:16:27;;;;;;;3.22;1.73;;;;;;;;;;5056401;28;20060;-59
2023/05/05 10:18:53;;;;;;;3.22;1.55;;;;;;;;;;5056736;28;20033;-59
2023/05/05 10:21:20;;;;;;;1.83;0.90;;;;;;;;;;5056759;28;20415;-59
2023/05/05 10:23:53;;;;;;;3.47;1.50;;;;;;;;;;5056299;28;20517;-60
2023/05/05 10:26:21;;;;;;;2.20;1.23;;;;;;;;;;5057221;28;20333;-60
2023/05/05 10:28:51;;;;;;;2.35;1.10;;;;;;;;;;5057027;28;20021;-59
2023/05/05 10:31:22;;;;;;;1.25;0.70;;;;;;;;;;5056561;28;20100;-59
2023/05/05 10:34:03;;;;;;;2.45;1.10;;;;;;;;;;5056874;28;20092;-59
2023/05/05 10:36:30;;;;;;;5.63;1.65;;;;;;;;;;5056525;28;20017;-59
2023/05/05 10:38:56;;;;;;;2.00;1.38;;;;;;;;;;5056374;28;20021;-59
2023/05/05 10:41:23;;;;;;;3.97;1.55;;;;;;;;;;5056968;28;20107;-59
2023/05/05 10:43:50;;;;;;;2.53;1.10;;;;;;;;;;5056692;28;20029;-59
2023/05/05 10:46:16;;;;;;;1.92;1.02;;;;;;;;;;5057391;28;20025;-59
2023/05/05 10:48:46;;;;;;;2.10;1.30;;;;;;;;;;5056675;28;20116;-59
2023/05/05 10:51:21;;;;;;;1.92;1.30;;;;;;;;;;5056948;28;20092;-59
2023/05/05 10:53:56;;;;;;;1.98;1.17;;;;;;;;;;5056657;28;20053;-59
2023/05/05 10:56:32;;;;;;;1.58;1.13;;;;;;;;;;5056705;28;20029;-59
2023/05/05 10:58:58;;;;;;;1.90;1.00;;;;;;;;;;5056917;28;20029;-59
2023/05/05 11:01:28;;;;;;;2.28;1.23;;;;;;;;;;5057143;28;20021;-59
2023/05/05 11:03:54;;;;;;;;;;;;;;;;;;5056936;28;20029;-59
2023/05/05 11:06:20;;;;;;;4.78;1.52;;;;;;;;;;5056892;28;20393;-59
2023/05/05 11:08:46;;;;;;;2.90;1.75;;;;;;;;;;5056674;28;20026;-62
2023/05/05 11:11:12;;;;;;;2.20;1.42;;;;;;;;;;5056847;28;20024;-59
2023/05/05 11:13:39;;;;;;;2.55;1.48;;;;;;;;;;5056662;28;20021;-60
2023/05/05 11:16:25;;;;;;;2.67;1.67;;;;;;;;;;5056630;28;20053;-60
2023/05/05 11:18:51;;;;;;;2.10;1.20;;;;;;;;;;5057033;28;20029;-60
2023/05/05 11:21:17;;;;;;;3.92;1.60;;;;;;;;;;5056214;28;20025;-60
2023/05/05 11:23:51;;;;;;;3.38;1.73;;;;;;;;;;5056249;28;20021;-58
2023/05/05 11:26:18;;;;;;;1.77;1.13;;;;;;;;;;5055828;28;20021;-59
2023/05/05 11:28:54;;;;;;;2.28;1.52;;;;;;;;;;5055663;28;20044;-58
2023/05/05 11:31:20;;;;;;;2.22;1.63;;;;;;;;;;5055787;28;20044;-59
2023/05/05 11:33:46;;;;;;;2.58;1.80;;;;;;;;;;5056002;28;20375;-61
2023/05/05 11:36:14;;;;;;;3.28;1.90;;;;;;;;;;5055947;28;20036;-59
2023/05/05 11:38:59;;;;;;;2.65;1.98;;;;;;;;;;5055905;28;20025;-59
2023/05/05 11:41:31;;;;;;;2.13;1.25;;;;;;;;;;5055817;28;20029;-59
2023/05/05 11:44:16;;;;;;;1.83;1.10;;;;;;;;;;5055760;28;20040;-59
2023/05/05 11:46:45;;;;;;;2.05;1.35;;;;;;;;;;5056110;28;20479;-59
2023/05/05 11:49:11;;;;;;;2.20;1.20;;;;;;;;;;5055697;28;20037;-59
2023/05/05 11:51:37;;;;;;;2.15;1.33;;;;;;;;;;5055585;28;20033;-59
2023/05/05 11:54:03;;;;;;;6.13;1.25;;;;;;;;;;5056219;28;20401;-59
2023/05/05 11:56:29;;;;;;;3.00;1.60;;;;;;;;;;5056006;28;20108;-59
2023/05/05 11:59:06;;;;;;;2.13;1.35;;;;;;;;;;5056016;28;20021;-59
2023/05/05 12:01:32;;;;;;;3.08;1.38;;;;;;;;;;5055465;28;20033;-59
2023/05/05 12:03:58;;;;;;;2.75;1.88;;;;;;;;;;5055720;28;20542;-59
2023/05/05 12:06:25;;;;;;;3.20;1.73;;;;;;;;;;5056041;28;20025;-59
2023/05/05 12:08:51;;;;;;;2.40;1.63;;;;;;;;;;5056078;28;20029;-59
2023/05/05 12:11:17;;;;;;;2.35;1.40;;;;;;;;;;5055804;28;20029;-59
2023/05/05 12:13:43;;;;;;;2.70;1.48;;;;;;;;;;5055187;28;20463;-59
2023/05/05 12:16:10;;;;;;;2.45;1.70;;;;;;;;;;5056067;28;20049;-59
2023/05/05 12:18:36;;;;;;;3.45;1.60;;;;;;;;;;5055149;28;20032;-59
2023/05/05 12:21:12;;;;;;;1.55;0.98;;;;;;;;;;5055061;28;20021;-59
2023/05/05 12:23:38;;;;;;;2.92;1.60;;;;;;;;;;5055404;28;20025;-59
2023/05/05 12:26:04;;;;;;;3.22;1.60;;;;;;;;;;5055666;28;20025;-59
2023/05/05 12:28:43;;;;;;;14.68;11.68;;;;;;;;;;5055169;28;20032;-59
2023/05/05 12:31:10;;;;;;;4.15;3.35;;;;;;;;;;5055298;28;20083;-59
2023/05/05 12:33:39;;;;;;;3.00;1.80;;;;;;;;;;5054202;28;20135;-59
2023/05/05 12:36:06;;;;;;;2.65;1.83;;;;;;;;;;5054310;28;20040;-59
2023/05/05 12:38:32;;;;;;;5.88;1.77;;;;;;;;;;5053946;28;20053;-59
2023/05/05 12:40:58;;;;;;;2.60;1.45;;;;;;;;;;5054706;28;20403;-59
2023/05/05 12:43:25;;;;;;;3.20;2.15;;;;;;;;;;5054564;28;20025;-59
2023/05/05 12:46:02;;;;;;;3.85;2.33;;;;;;;;;;5054240;28;20043;-59
2023/05/05 12:48:27;;;;;;;2.45;1.63;;;;;;;;;;5054045;28;20052;-59
2023/05/05 12:50:53;;;;;;;3.83;2.22;;;;;;;;;;5053663;28;20063;-59
2023/05/05 12:53:20;;;;;;;3.40;1.98;;;;;;;;;;5053916;28;20037;-59
2023/05/05 12:55:46;;;;;;;4.00;2.10;;;;;;;;;;5054370;28;20025;-59
2023/05/05 12:58:12;;;;;;;5.18;2.22;;;;;;;;;;5053827;28;20542;-59
2023/05/05 13:00:38;;;;;;;2.50;1.50;;;;;;;;;;5053792;28;20021;-59
2023/05/05 13:03:05;;;;;;;3.05;1.80;;;;;;;;;;5053784;28;20450;-59
2023/05/05 13:05:31;;;;;;;2.30;1.52;;;;;;;;;;5053177;28;20020;-59
2023/05/05 13:07:57;;;;;;;3.22;1.98;;;;;;;;;;5053625;28;20025;-59
2023/05/05 13:10:30;;;;;;;2.75;1.30;;;;;;;;;;5053372;28;20078;-59
2023/05/05 13:12:59;;;;;;;7.85;1.48;;;;;;;;;;5053973;28;20413;-59
2023/05/05 13:15:26;;;;;;;4.03;1.58;;;;;;;;;;5052990;28;20445;-59
2023/05/05 13:17:58;;;;;;;3.50;2.17;;;;;;;;;;5054088;28;20035;-59
2023/05/05 13:20:24;;;;;;;3.55;1.50;;;;;;;;;;5053442;28;20025;-59
2023/05/05 13:22:50;;;;;;;3.50;1.50;;;;;;;;;;5053064;28;20415;-59
2023/05/05 13:25:16;;;;;;;2.92;1.30;;;;;;;;;;5053299;28;20017;-59
2023/05/05 13:27:42;;;;;;;2.75;1.48;;;;;;;;;;5053632;28;20025;-59
2023/05/05 13:30:09;;;;;;;2.70;1.52;;;;;;;;;;5053570;28;20108;-59
2023/05/05 13:32:35;;;;;;;2.25;1.45;;;;;;;;;;5054047;28;20033;-59
2023/05/05 13:35:01;;;;;;;6.95;1.10;;;;;;;;;;5054166;28;20493;-59
2023/05/05 13:37:27;;;;;;;4.65;1.90;;;;;;;;;;5053647;28;20025;-59
2023/05/05 13:39:57;;;;;;;2.67;1.92;;;;;;;;;;5053470;28;20520;-59
2023/05/05 13:42:23;;;;;;;2.50;1.77;;;;;;;;;;5053446;28;20060;-59
2023/05/05 13:44:49;;;;;;;2.15;1.35;;;;;;;;;;5053382;28;20029;-59
2023/05/05 13:47:15;;;;;;;5.28;2.33;;;;;;;;;;5053462;28;20017;-59
2023/05/05 13:49:41;;;;;;;3.30;1.77;;;;;;;;;;5052690;28;20021;-59
2023/05/05 13:52:07;;;;;;;3.88;1.90;;;;;;;;;;5053410;28;20036;-59
2023/05/05 13:54:33;;;;;;;2.72;1.55;;;;;;;;;;5053473;28;20021;-59
2023/05/05 13:56:59;;;;;;;2.30;1.52;;;;;;;;;;5053588;28;20104;-59
2023/05/05 13:59:26;;;;;;;4.30;1.80;;;;;;;;;;5054234;28;20021;-59
2023/05/05 14:01:52;;;;;;;2.75;1.55;;;;;;;;;;5053664;28;20414;-59
2023/05/05 14:04:18;;;;;;;4.88;1.92;;;;;;;;;;5053616;28;20361;-59
2023/05/05 14:06:44;;;;;;;2.03;1.30;;;;;;;;;;5053985;28;20026;-59
2023/05/05 14:09:10;;;;;;;3.20;1.58;;;;;;;;;;5053732;28;20557;-59
2023/05/05 14:11:36;;;;;;;5.45;1.70;;;;;;;;;;5053480;28;20025;-59
2023/05/05 14:14:02;;;;;;;2.72;1.65;;;;;;;;;;5054102;28;20059;-59
2023/05/05 14:16:28;;;;;;;2.55;1.75;;;;;;;;;;5054457;28;20543;-60
2023/05/05 14:18:54;;;;;;;2.97;1.73;;;;;;;;;;5053327;28;20028;-59
2023/05/05 14:21:20;;;;;;;2.78;1.80;;;;;;;;;;5052395;28;20025;-59
2023/05/05 14:23:46;;;;;;;4.35;1.65;;;;;;;;;;5052661;28;20025;-60
2023/05/05 14:26:12;;;;;;;2.50;1.58;;;;;;;;;;5054101;28;20025;-60
2023/05/05 14:28:38;;;;;;;2.22;1.17;;;;;;;;;;5053376;28;20421;-60
2023/05/05 14:31:04;;;;;;;6.95;1.92;;;;;;;;;;5053269;28;20046;-60
2023/05/05 14:33:30;;;;;;;2.42;1.55;;;;;;;;;;5053688;28;20379;-60
2023/05/05 14:35:56;;;;;;;2.17;1.38;;;;;;;;;;5053715;28;20036;-60
2023/05/05 14:38:22;;;;;;;2.78;1.48;;;;;;;;;;5053107;28;20139;-59
2023/05/05 14:40:48;;;;;;;2.00;1.40;;;;;;;;;;5053123;28;20060;-60
2023/05/05 14:43:14;;;;;;;3.00;1.58;;;;;;;;;;5053750;28;20036;-60
2023/05/05 14:45:40;;;;;;;2.08;1.40;;;;;;;;;;5053256;28;20040;-61